sensor_id;sensor_type;location;lat;lon;timestamp;P1;durP1;ratioP1;P2;durP2;ratioP2
41323;SDS011;27073;51.128;4.220;2023-05-10T00:01:24;16.42;;;10.60;;
41323;SDS011;27073;51.128;4.220;2023-05-10T00:03:50;15.50;;;10.05;;
41323;SDS011;27073;51.128;4.220;2023-05-10T00:06:16;15.55;;;11.27;;
41323;SDS011;27073;51.128;4.220;2023-05-10T00:08:42;16.17;;;10.98;;
41323;SDS011;27073;51.128;4.220;2023-05-10T00:11:07;18.52;;;11.52;;
41323;SDS011;27073;51.128;4.220;2023-05-10T00:13:33;18.58;;;10.90;;
41323;SDS011;27073;51.128;4.220;2023-05-10T00:15:59;21.38;;;12.45;;
41323;SDS011;27073;51.128;4.220;2023-05-10T00:18:25;16.60;;;10.93;;
41323;SDS011;27073;51.128;4.220;2023-05-10T00:20:50;18.30;;;11.30;;
41323;SDS011;27073;51.128;4.220;2023-05-10T00:23:16;15.48;;;11.50;;
41323;SDS011;27073;51.128;4.220;2023-05-10T00:25:42;18.55;;;12.10;;
41323;SDS011;27073;51.128;4.220;2023-05-10T00:28:07;17.05;;;11.45;;
41323;SDS011;27073;51.128;4.220;2023-05-10T00:30:33;16.50;;;11.88;;
41323;SDS011;27073;51.128;4.220;2023-05-10T00:33:00;19.88;;;11.93;;
41323;SDS011;27073;51.128;4.220;2023-05-10T00:35:26;16.00;;;11.38;;
41323;SDS011;27073;51.128;4.220;2023-05-10T00:37:52;18.75;;;12.65;;
41323;SDS011;27073;51.128;4.220;2023-05-10T00:40:19;21.20;;;13.02;;
41323;SDS011;27073;51.128;4.220;2023-05-10T00:42:49;20.35;;;11.85;;
41323;SDS011;27073;51.128;4.220;2023-05-10T00:45:15;19.10;;;12.25;;
41323;SDS011;27073;51.128;4.220;2023-05-10T00:47:41;16.45;;;12.80;;
41323;SDS011;27073;51.128;4.220;2023-05-10T00:50:07;18.58;;;13.02;;
41323;SDS011;27073;51.128;4.220;2023-05-10T00:52:34;24.13;;;14.20;;
41323;SDS011;27073;51.128;4.220;2023-05-10T00:55:00;21.90;;;14.32;;
41323;SDS011;27073;51.128;4.220;2023-05-10T00:57:26;20.48;;;14.60;;
41323;SDS011;27073;51.128;4.220;2023-05-10T00:59:52;23.00;;;15.20;;
41323;SDS011;27073;51.128;4.220;2023-05-10T01:02:18;23.52;;;16.02;;
41323;SDS011;27073;51.128;4.220;2023-05-10T01:04:44;21.38;;;16.75;;
41323;SDS011;27073;51.128;4.220;2023-05-10T01:07:10;21.75;;;16.38;;
41323;SDS011;27073;51.128;4.220;2023-05-10T01:09:36;24.83;;;15.88;;
41323;SDS011;27073;51.128;4.220;2023-05-10T01:12:02;26.10;;;16.38;;
41323;SDS011;27073;51.128;4.220;2023-05-10T01:14:28;24.13;;;16.38;;
41323;SDS011;27073;51.128;4.220;2023-05-10T01:16:55;22.17;;;15.98;;
41323;SDS011;27073;51.128;4.220;2023-05-10T01:19:28;23.13;;;15.57;;
41323;SDS011;27073;51.128;4.220;2023-05-10T01:27:17;23.33;;;16.52;;
41323;SDS011;27073;51.128;4.220;2023-05-10T01:35:26;23.38;;;15.98;;
41323;SDS011;27073;51.128;4.220;2023-05-10T01:43:22;21.75;;;16.98;;
41323;SDS011;27073;51.128;4.220;2023-05-10T01:46:02;23.02;;;16.77;;
41323;SDS011;27073;51.128;4.220;2023-05-10T01:48:46;25.42;;;17.80;;
41323;SDS011;27073;51.128;4.220;2023-05-10T01:51:16;23.42;;;17.48;;
41323;SDS011;27073;51.128;4.220;2023-05-10T01:53:48;23.98;;;19.20;;
41323;SDS011;27073;51.128;4.220;2023-05-10T01:56:16;24.65;;;19.15;;
41323;SDS011;27073;51.128;4.220;2023-05-10T01:58:47;26.95;;;18.95;;
41323;SDS011;27073;51.128;4.220;2023-05-10T02:01:15;24.75;;;19.08;;
41323;SDS011;27073;51.128;4.220;2023-05-10T02:03:43;23.52;;;19.40;;
41323;SDS011;27073;51.128;4.220;2023-05-10T02:06:10;28.20;;;20.00;;
41323;SDS011;27073;51.128;4.220;2023-05-10T02:08:38;28.63;;;19.20;;
41323;SDS011;27073;51.128;4.220;2023-05-10T02:11:05;24.20;;;19.70;;
41323;SDS011;27073;51.128;4.220;2023-05-10T02:13:32;29.90;;;19.75;;
41323;SDS011;27073;51.128;4.220;2023-05-10T02:16:01;26.50;;;19.83;;
41323;SDS011;27073;51.128;4.220;2023-05-10T02:18:28;27.58;;;19.73;;
41323;SDS011;27073;51.128;4.220;2023-05-10T02:20:55;25.73;;;21.27;;
41323;SDS011;27073;51.128;4.220;2023-05-10T02:23:22;33.45;;;23.00;;
41323;SDS011;27073;51.128;4.220;2023-05-10T02:25:50;27.95;;;21.88;;
41323;SDS011;27073;51.128;4.220;2023-05-10T02:28:19;29.48;;;23.40;;
41323;SDS011;27073;51.128;4.220;2023-05-10T02:30:47;30.05;;;24.13;;
41323;SDS011;27073;51.128;4.220;2023-05-10T02:33:13;36.25;;;25.45;;
41323;SDS011;27073;51.128;4.220;2023-05-10T02:35:39;33.38;;;25.17;;
41323;SDS011;27073;51.128;4.220;2023-05-10T02:38:07;31.35;;;25.48;;
41323;SDS011;27073;51.128;4.220;2023-05-10T02:40:35;34.75;;;25.48;;
41323;SDS011;27073;51.128;4.220;2023-05-10T02:43:02;31.98;;;24.08;;
41323;SDS011;27073;51.128;4.220;2023-05-10T02:45:31;29.35;;;23.85;;
41323;SDS011;27073;51.128;4.220;2023-05-10T02:48:01;31.92;;;24.20;;
41323;SDS011;27073;51.128;4.220;2023-05-10T02:50:28;33.10;;;25.67;;
41323;SDS011;27073;51.128;4.220;2023-05-10T02:52:59;32.15;;;26.73;;
41323;SDS011;27073;51.128;4.220;2023-05-10T02:55:33;36.55;;;27.08;;
41323;SDS011;27073;51.128;4.220;2023-05-10T02:58:03;33.95;;;25.38;;
41323;SDS011;27073;51.128;4.220;2023-05-10T03:00:29;30.95;;;25.73;;
41323;SDS011;27073;51.128;4.220;2023-05-10T03:02:55;34.28;;;26.50;;
41323;SDS011;27073;51.128;4.220;2023-05-10T03:05:21;34.72;;;27.08;;
41323;SDS011;27073;51.128;4.220;2023-05-10T03:07:47;37.42;;;29.73;;
41323;SDS011;27073;51.128;4.220;2023-05-10T03:10:13;37.53;;;29.77;;
41323;SDS011;27073;51.128;4.220;2023-05-10T03:15:18;37.42;;;30.10;;
41323;SDS011;27073;51.128;4.220;2023-05-10T03:18:10;38.03;;;29.95;;
41323;SDS011;27073;51.128;4.220;2023-05-10T03:20:43;49.83;;;35.47;;
41323;SDS011;27073;51.128;4.220;2023-05-10T03:23:27;50.30;;;37.25;;
41323;SDS011;27073;51.128;4.220;2023-05-10T03:25:56;49.70;;;36.38;;
41323;SDS011;27073;51.128;4.220;2023-05-10T03:28:24;47.10;;;35.15;;
41323;SDS011;27073;51.128;4.220;2023-05-10T03:30:52;49.83;;;36.47;;
41323;SDS011;27073;51.128;4.220;2023-05-10T03:33:19;46.65;;;35.35;;
41323;SDS011;27073;51.128;4.220;2023-05-10T03:35:46;47.10;;;33.75;;
41323;SDS011;27073;51.128;4.220;2023-05-10T03:38:12;45.80;;;32.95;;
41323;SDS011;27073;51.128;4.220;2023-05-10T03:40:39;48.35;;;33.75;;
41323;SDS011;27073;51.128;4.220;2023-05-10T03:43:06;51.95;;;35.30;;
41323;SDS011;27073;51.128;4.220;2023-05-10T03:45:31;53.22;;;35.63;;
41323;SDS011;27073;51.128;4.220;2023-05-10T03:47:58;58.35;;;42.17;;
41323;SDS011;27073;51.128;4.220;2023-05-10T03:50:24;65.43;;;41.95;;
41323;SDS011;27073;51.128;4.220;2023-05-10T03:52:50;57.13;;;40.20;;
41323;SDS011;27073;51.128;4.220;2023-05-10T03:55:16;60.63;;;41.70;;
41323;SDS011;27073;51.128;4.220;2023-05-10T03:57:42;57.03;;;38.92;;
41323;SDS011;27073;51.128;4.220;2023-05-10T04:00:08;62.75;;;41.97;;
41323;SDS011;27073;51.128;4.220;2023-05-10T04:02:40;64.57;;;41.83;;
41323;SDS011;27073;51.128;4.220;2023-05-10T04:05:09;64.43;;;40.42;;
41323;SDS011;27073;51.128;4.220;2023-05-10T04:07:35;63.42;;;41.28;;
41323;SDS011;27073;51.128;4.220;2023-05-10T04:10:01;60.38;;;39.35;;
41323;SDS011;27073;51.128;4.220;2023-05-10T04:12:27;60.08;;;39.65;;
41323;SDS011;27073;51.128;4.220;2023-05-10T04:14:53;63.35;;;40.85;;
41323;SDS011;27073;51.128;4.220;2023-05-10T04:17:18;63.55;;;42.83;;
41323;SDS011;27073;51.128;4.220;2023-05-10T04:19:44;67.68;;;44.67;;
41323;SDS011;27073;51.128;4.220;2023-05-10T04:22:10;71.93;;;45.42;;
41323;SDS011;27073;51.128;4.220;2023-05-10T04:24:35;76.28;;;50.72;;
41323;SDS011;27073;51.128;4.220;2023-05-10T04:27:01;74.70;;;51.20;;
41323;SDS011;27073;51.128;4.220;2023-05-10T04:29:27;76.32;;;53.13;;
41323;SDS011;27073;51.128;4.220;2023-05-10T04:31:52;72.82;;;51.00;;
41323;SDS011;27073;51.128;4.220;2023-05-10T04:34:20;68.40;;;45.10;;
41323;SDS011;27073;51.128;4.220;2023-05-10T04:36:46;64.57;;;45.88;;
41323;SDS011;27073;51.128;4.220;2023-05-10T04:39:11;61.38;;;43.75;;
41323;SDS011;27073;51.128;4.220;2023-05-10T04:41:38;60.25;;;42.42;;
41323;SDS011;27073;51.128;4.220;2023-05-10T04:44:04;59.83;;;41.92;;
41323;SDS011;27073;51.128;4.220;2023-05-10T04:46:30;54.85;;;40.35;;
41323;SDS011;27073;51.128;4.220;2023-05-10T04:48:56;57.13;;;41.45;;
41323;SDS011;27073;51.128;4.220;2023-05-10T04:51:21;53.65;;;38.45;;
41323;SDS011;27073;51.128;4.220;2023-05-10T04:53:47;50.55;;;36.25;;
41323;SDS011;27073;51.128;4.220;2023-05-10T04:56:13;48.42;;;36.92;;
41323;SDS011;27073;51.128;4.220;2023-05-10T04:58:39;50.97;;;34.45;;
41323;SDS011;27073;51.128;4.220;2023-05-10T05:01:08;49.90;;;36.28;;
41323;SDS011;27073;51.128;4.220;2023-05-10T05:03:34;49.22;;;37.38;;
41323;SDS011;27073;51.128;4.220;2023-05-10T05:06:00;49.50;;;37.92;;
41323;SDS011;27073;51.128;4.220;2023-05-10T05:08:26;47.35;;;36.25;;
41323;SDS011;27073;51.128;4.220;2023-05-10T05:10:52;49.95;;;38.55;;
41323;SDS011;27073;51.128;4.220;2023-05-10T05:13:17;52.20;;;38.90;;
41323;SDS011;27073;51.128;4.220;2023-05-10T05:15:43;57.60;;;40.95;;
41323;SDS011;27073;51.128;4.220;2023-05-10T05:18:09;56.03;;;39.42;;
41323;SDS011;27073;51.128;4.220;2023-05-10T05:20:35;59.13;;;40.83;;
41323;SDS011;27073;51.128;4.220;2023-05-10T05:23:01;56.00;;;40.22;;
41323;SDS011;27073;51.128;4.220;2023-05-10T05:25:26;55.88;;;41.33;;
41323;SDS011;27073;51.128;4.220;2023-05-10T05:27:52;58.97;;;41.38;;
41323;SDS011;27073;51.128;4.220;2023-05-10T05:30:18;55.03;;;41.03;;
41323;SDS011;27073;51.128;4.220;2023-05-10T05:32:44;50.20;;;38.50;;
41323;SDS011;27073;51.128;4.220;2023-05-10T05:35:09;49.65;;;38.42;;
41323;SDS011;27073;51.128;4.220;2023-05-10T05:37:36;45.78;;;37.25;;
41323;SDS011;27073;51.128;4.220;2023-05-10T05:40:02;45.80;;;33.97;;
41323;SDS011;27073;51.128;4.220;2023-05-10T05:42:28;50.70;;;35.92;;
41323;SDS011;27073;51.128;4.220;2023-05-10T05:44:55;46.72;;;35.90;;
41323;SDS011;27073;51.128;4.220;2023-05-10T05:47:21;48.95;;;36.67;;
41323;SDS011;27073;51.128;4.220;2023-05-10T05:49:47;47.65;;;36.35;;
41323;SDS011;27073;51.128;4.220;2023-05-10T05:52:12;46.47;;;35.22;;
41323;SDS011;27073;51.128;4.220;2023-05-10T05:54:38;43.75;;;33.55;;
41323;SDS011;27073;51.128;4.220;2023-05-10T05:57:04;42.58;;;33.33;;
41323;SDS011;27073;51.128;4.220;2023-05-10T05:59:30;41.85;;;33.85;;
41323;SDS011;27073;51.128;4.220;2023-05-10T06:01:55;39.50;;;33.20;;
41323;SDS011;27073;51.128;4.220;2023-05-10T06:04:21;42.70;;;34.17;;
41323;SDS011;27073;51.128;4.220;2023-05-10T06:06:47;39.38;;;33.35;;
41323;SDS011;27073;51.128;4.220;2023-05-10T06:09:12;42.25;;;34.58;;
41323;SDS011;27073;51.128;4.220;2023-05-10T06:11:38;39.70;;;33.30;;
41323;SDS011;27073;51.128;4.220;2023-05-10T06:14:04;42.63;;;35.55;;
41323;SDS011;27073;51.128;4.220;2023-05-10T06:16:32;43.47;;;32.80;;
41323;SDS011;27073;51.128;4.220;2023-05-10T06:18:58;43.67;;;34.47;;
41323;SDS011;27073;51.128;4.220;2023-05-10T06:21:23;42.20;;;32.72;;
41323;SDS011;27073;51.128;4.220;2023-05-10T06:23:49;39.55;;;31.70;;
41323;SDS011;27073;51.128;4.220;2023-05-10T06:26:15;41.35;;;32.78;;
41323;SDS011;27073;51.128;4.220;2023-05-10T06:28:40;42.97;;;34.13;;
41323;SDS011;27073;51.128;4.220;2023-05-10T06:31:06;43.22;;;33.03;;
41323;SDS011;27073;51.128;4.220;2023-05-10T06:33:32;42.28;;;33.50;;
41323;SDS011;27073;51.128;4.220;2023-05-10T06:35:58;35.33;;;30.05;;
41323;SDS011;27073;51.128;4.220;2023-05-10T06:38:24;36.33;;;27.17;;
41323;SDS011;27073;51.128;4.220;2023-05-10T06:40:50;33.33;;;27.27;;
41323;SDS011;27073;51.128;4.220;2023-05-10T06:43:16;28.23;;;25.23;;
41323;SDS011;27073;51.128;4.220;2023-05-10T06:45:42;30.75;;;24.40;;
41323;SDS011;27073;51.128;4.220;2023-05-10T06:48:08;26.83;;;22.63;;
41323;SDS011;27073;51.128;4.220;2023-05-10T06:50:34;25.45;;;21.58;;
41323;SDS011;27073;51.128;4.220;2023-05-10T06:53:00;25.25;;;22.52;;
41323;SDS011;27073;51.128;4.220;2023-05-10T06:55:27;27.15;;;22.60;;
41323;SDS011;27073;51.128;4.220;2023-05-10T06:57:53;26.23;;;21.55;;
41323;SDS011;27073;51.128;4.220;2023-05-10T07:00:19;28.05;;;21.27;;
41323;SDS011;27073;51.128;4.220;2023-05-10T07:02:45;22.38;;;19.45;;
41323;SDS011;27073;51.128;4.220;2023-05-10T07:05:11;25.13;;;21.58;;
41323;SDS011;27073;51.128;4.220;2023-05-10T07:07:37;25.30;;;20.25;;
41323;SDS011;27073;51.128;4.220;2023-05-10T07:10:03;23.17;;;20.10;;
41323;SDS011;27073;51.128;4.220;2023-05-10T07:12:29;23.25;;;20.75;;
41323;SDS011;27073;51.128;4.220;2023-05-10T07:14:54;24.55;;;21.88;;
41323;SDS011;27073;51.128;4.220;2023-05-10T07:17:20;21.90;;;19.55;;
41323;SDS011;27073;51.128;4.220;2023-05-10T07:19:46;20.88;;;18.60;;
41323;SDS011;27073;51.128;4.220;2023-05-10T07:22:12;21.75;;;19.45;;
41323;SDS011;27073;51.128;4.220;2023-05-10T07:24:38;26.92;;;20.55;;
41323;SDS011;27073;51.128;4.220;2023-05-10T07:27:03;24.00;;;20.17;;
41323;SDS011;27073;51.128;4.220;2023-05-10T07:29:29;26.02;;;21.10;;
41323;SDS011;27073;51.128;4.220;2023-05-10T07:31:55;26.48;;;23.33;;
41323;SDS011;27073;51.128;4.220;2023-05-10T07:34:20;30.85;;;24.33;;
41323;SDS011;27073;51.128;4.220;2023-05-10T07:36:46;27.42;;;22.27;;
41323;SDS011;27073;51.128;4.220;2023-05-10T07:39:12;25.75;;;21.35;;
41323;SDS011;27073;51.128;4.220;2023-05-10T07:41:38;25.55;;;21.08;;
41323;SDS011;27073;51.128;4.220;2023-05-10T07:44:04;27.27;;;23.80;;
41323;SDS011;27073;51.128;4.220;2023-05-10T07:46:31;29.83;;;22.95;;
41323;SDS011;27073;51.128;4.220;2023-05-10T07:48:56;28.92;;;24.80;;
41323;SDS011;27073;51.128;4.220;2023-05-10T07:51:22;33.58;;;27.00;;
41323;SDS011;27073;51.128;4.220;2023-05-10T07:53:49;33.20;;;28.83;;
41323;SDS011;27073;51.128;4.220;2023-05-10T07:58:46;25.67;;;22.73;;
41323;SDS011;27073;51.128;4.220;2023-05-10T08:01:12;22.55;;;18.83;;
41323;SDS011;27073;51.128;4.220;2023-05-10T08:03:38;17.73;;;15.23;;
41323;SDS011;27073;51.128;4.220;2023-05-10T08:06:03;20.50;;;15.38;;
41323;SDS011;27073;51.128;4.220;2023-05-10T08:08:29;19.38;;;16.60;;
41323;SDS011;27073;51.128;4.220;2023-05-10T08:10:55;19.15;;;15.90;;
41323;SDS011;27073;51.128;4.220;2023-05-10T08:13:21;19.10;;;15.30;;
41323;SDS011;27073;51.128;4.220;2023-05-10T08:15:47;17.38;;;15.57;;
41323;SDS011;27073;51.128;4.220;2023-05-10T08:18:12;18.05;;;15.68;;
41323;SDS011;27073;51.128;4.220;2023-05-10T08:20:38;20.85;;;17.80;;
41323;SDS011;27073;51.128;4.220;2023-05-10T08:23:04;24.67;;;17.17;;
41323;SDS011;27073;51.128;4.220;2023-05-10T08:25:30;24.20;;;20.48;;
41323;SDS011;27073;51.128;4.220;2023-05-10T08:27:57;26.30;;;21.20;;
41323;SDS011;27073;51.128;4.220;2023-05-10T08:30:22;29.25;;;22.15;;
41323;SDS011;27073;51.128;4.220;2023-05-10T08:32:48;23.05;;;18.40;;
41323;SDS011;27073;51.128;4.220;2023-05-10T08:35:14;19.45;;;16.52;;
41323;SDS011;27073;51.128;4.220;2023-05-10T08:37:41;19.80;;;16.00;;
41323;SDS011;27073;51.128;4.220;2023-05-10T08:40:06;18.80;;;15.52;;
41323;SDS011;27073;51.128;4.220;2023-05-10T08:42:36;22.70;;;18.88;;
41323;SDS011;27073;51.128;4.220;2023-05-10T08:45:09;25.50;;;19.97;;
41323;SDS011;27073;51.128;4.220;2023-05-10T08:50:03;25.58;;;20.02;;
41323;SDS011;27073;51.128;4.220;2023-05-10T08:52:30;24.27;;;19.70;;
41323;SDS011;27073;51.128;4.220;2023-05-10T08:55:03;24.70;;;19.77;;
41323;SDS011;27073;51.128;4.220;2023-05-10T08:57:29;24.73;;;19.88;;
41323;SDS011;27073;51.128;4.220;2023-05-10T08:59:55;26.73;;;20.75;;
41323;SDS011;27073;51.128;4.220;2023-05-10T09:02:21;29.02;;;21.00;;
41323;SDS011;27073;51.128;4.220;2023-05-10T09:04:48;29.67;;;19.90;;
41323;SDS011;27073;51.128;4.220;2023-05-10T09:07:14;25.67;;;19.13;;
41323;SDS011;27073;51.128;4.220;2023-05-10T09:09:39;28.33;;;20.92;;
41323;SDS011;27073;51.128;4.220;2023-05-10T09:12:05;30.40;;;21.38;;
41323;SDS011;27073;51.128;4.220;2023-05-10T09:14:33;30.08;;;22.52;;
41323;SDS011;27073;51.128;4.220;2023-05-10T09:17:00;28.23;;;21.50;;
41323;SDS011;27073;51.128;4.220;2023-05-10T09:19:27;30.70;;;21.00;;
41323;SDS011;27073;51.128;4.220;2023-05-10T09:21:53;31.17;;;20.70;;
41323;SDS011;27073;51.128;4.220;2023-05-10T09:24:18;31.35;;;21.02;;
41323;SDS011;27073;51.128;4.220;2023-05-10T09:26:47;24.42;;;19.67;;
41323;SDS011;27073;51.128;4.220;2023-05-10T09:29:14;26.35;;;19.70;;
41323;SDS011;27073;51.128;4.220;2023-05-10T09:31:47;27.80;;;20.73;;
41323;SDS011;27073;51.128;4.220;2023-05-10T09:34:20;22.48;;;18.17;;
41323;SDS011;27073;51.128;4.220;2023-05-10T09:36:55;25.67;;;19.00;;
41323;SDS011;27073;51.128;4.220;2023-05-10T09:39:34;26.27;;;18.45;;
41323;SDS011;27073;51.128;4.220;2023-05-10T09:42:04;24.70;;;19.55;;
41323;SDS011;27073;51.128;4.220;2023-05-10T09:44:32;25.17;;;19.02;;
41323;SDS011;27073;51.128;4.220;2023-05-10T09:46:59;26.92;;;18.85;;
41323;SDS011;27073;51.128;4.220;2023-05-10T09:49:26;25.25;;;17.98;;
41323;SDS011;27073;51.128;4.220;2023-05-10T09:52:05;23.30;;;17.98;;
41323;SDS011;27073;51.128;4.220;2023-05-10T09:54:32;22.35;;;16.55;;
41323;SDS011;27073;51.128;4.220;2023-05-10T09:56:59;28.27;;;19.23;;
41323;SDS011;27073;51.128;4.220;2023-05-10T09:59:26;26.98;;;18.30;;
41323;SDS011;27073;51.128;4.220;2023-05-10T10:01:53;24.30;;;17.52;;
41323;SDS011;27073;51.128;4.220;2023-05-10T10:04:22;20.13;;;16.02;;
41323;SDS011;27073;51.128;4.220;2023-05-10T10:06:57;24.00;;;15.95;;
41323;SDS011;27073;51.128;4.220;2023-05-10T10:09:25;18.95;;;14.57;;
41323;SDS011;27073;51.128;4.220;2023-05-10T10:11:52;23.98;;;15.98;;
41323;SDS011;27073;51.128;4.220;2023-05-10T10:14:18;20.50;;;15.35;;
41323;SDS011;27073;51.128;4.220;2023-05-10T10:16:45;20.27;;;13.80;;
41323;SDS011;27073;51.128;4.220;2023-05-10T10:19:11;17.58;;;15.13;;
41323;SDS011;27073;51.128;4.220;2023-05-10T10:21:37;22.50;;;14.75;;
41323;SDS011;27073;51.128;4.220;2023-05-10T10:24:03;19.90;;;14.90;;
41323;SDS011;27073;51.128;4.220;2023-05-10T10:26:31;20.08;;;14.43;;
41323;SDS011;27073;51.128;4.220;2023-05-10T10:29:02;17.58;;;13.98;;
41323;SDS011;27073;51.128;4.220;2023-05-10T10:31:48;18.95;;;13.90;;
41323;SDS011;27073;51.128;4.220;2023-05-10T10:34:27;18.70;;;14.05;;
41323;SDS011;27073;51.128;4.220;2023-05-10T10:36:54;19.60;;;14.30;;
41323;SDS011;27073;51.128;4.220;2023-05-10T10:39:21;19.48;;;13.77;;
41323;SDS011;27073;51.128;4.220;2023-05-10T10:41:51;20.85;;;13.57;;
41323;SDS011;27073;51.128;4.220;2023-05-10T11:03:03;15.93;;;11.90;;
41323;SDS011;27073;51.128;4.220;2023-05-10T11:07:59;15.25;;;11.05;;
41323;SDS011;27073;51.128;4.220;2023-05-10T11:10:25;13.93;;;12.10;;
41323;SDS011;27073;51.128;4.220;2023-05-10T11:15:29;16.40;;;12.35;;
41323;SDS011;27073;51.128;4.220;2023-05-10T11:18:18;14.50;;;10.88;;
41323;SDS011;27073;51.128;4.220;2023-05-10T11:20:58;13.43;;;11.32;;
41323;SDS011;27073;51.128;4.220;2023-05-10T11:26:11;15.73;;;11.40;;
41323;SDS011;27073;51.128;4.220;2023-05-10T11:28:44;14.00;;;11.25;;
41323;SDS011;27073;51.128;4.220;2023-05-10T11:31:13;14.30;;;11.73;;
41323;SDS011;27073;51.128;4.220;2023-05-10T11:33:50;12.50;;;11.23;;
41323;SDS011;27073;51.128;4.220;2023-05-10T11:36:18;13.68;;;10.60;;
41323;SDS011;27073;51.128;4.220;2023-05-10T11:38:55;13.18;;;10.88;;
41323;SDS011;27073;51.128;4.220;2023-05-10T11:41:22;10.85;;;9.30;;
41323;SDS011;27073;51.128;4.220;2023-05-10T11:43:49;13.25;;;10.27;;
41323;SDS011;27073;51.128;4.220;2023-05-10T11:46:18;11.95;;;10.75;;
41323;SDS011;27073;51.128;4.220;2023-05-10T11:48:49;14.18;;;11.50;;
41323;SDS011;27073;51.128;4.220;2023-05-10T11:51:19;12.20;;;11.00;;
41323;SDS011;27073;51.128;4.220;2023-05-10T11:53:49;12.70;;;10.75;;
41323;SDS011;27073;51.128;4.220;2023-05-10T11:56:17;11.40;;;9.30;;
41323;SDS011;27073;51.128;4.220;2023-05-10T11:58:43;15.98;;;9.65;;
41323;SDS011;27073;51.128;4.220;2023-05-10T12:01:09;12.07;;;9.50;;
41323;SDS011;27073;51.128;4.220;2023-05-10T12:03:35;11.80;;;10.02;;
41323;SDS011;27073;51.128;4.220;2023-05-10T12:06:02;12.88;;;11.23;;
41323;SDS011;27073;51.128;4.220;2023-05-10T12:08:29;14.32;;;11.48;;
41323;SDS011;27073;51.128;4.220;2023-05-10T12:11:06;13.98;;;11.30;;
41323;SDS011;27073;51.128;4.220;2023-05-10T12:13:37;16.48;;;11.15;;
41323;SDS011;27073;51.128;4.220;2023-05-10T12:18:51;11.32;;;9.80;;
41323;SDS011;27073;51.128;4.220;2023-05-10T12:21:19;13.48;;;11.35;;
41323;SDS011;27073;51.128;4.220;2023-05-10T12:23:56;12.52;;;10.30;;
41323;SDS011;27073;51.128;4.220;2023-05-10T12:26:25;16.77;;;11.60;;
41323;SDS011;27073;51.128;4.220;2023-05-10T12:28:53;13.25;;;11.85;;
41323;SDS011;27073;51.128;4.220;2023-05-10T12:31:19;12.10;;;10.70;;
41323;SDS011;27073;51.128;4.220;2023-05-10T12:33:45;13.10;;;11.77;;
41323;SDS011;27073;51.128;4.220;2023-05-10T12:36:13;13.13;;;11.20;;
41323;SDS011;27073;51.128;4.220;2023-05-10T12:38:40;14.43;;;11.70;;
41323;SDS011;27073;51.128;4.220;2023-05-10T12:41:10;15.10;;;12.13;;
41323;SDS011;27073;51.128;4.220;2023-05-10T12:43:40;14.30;;;12.40;;
41323;SDS011;27073;51.128;4.220;2023-05-10T12:48:32;13.68;;;12.25;;
41323;SDS011;27073;51.128;4.220;2023-05-10T12:51:00;14.05;;;11.65;;
41323;SDS011;27073;51.128;4.220;2023-05-10T12:53:26;14.55;;;11.93;;
41323;SDS011;27073;51.128;4.220;2023-05-10T12:55:52;13.60;;;12.20;;
41323;SDS011;27073;51.128;4.220;2023-05-10T12:58:18;13.48;;;10.90;;
41323;SDS011;27073;51.128;4.220;2023-05-10T13:00:44;13.73;;;12.15;;
41323;SDS011;27073;51.128;4.220;2023-05-10T13:03:10;14.68;;;12.15;;
41323;SDS011;27073;51.128;4.220;2023-05-10T13:05:36;14.23;;;11.88;;
41323;SDS011;27073;51.128;4.220;2023-05-10T13:08:01;15.13;;;11.85;;
41323;SDS011;27073;51.128;4.220;2023-05-10T13:10:29;13.77;;;12.30;;
41323;SDS011;27073;51.128;4.220;2023-05-10T13:12:55;17.05;;;13.52;;
41323;SDS011;27073;51.128;4.220;2023-05-10T13:15:22;15.88;;;14.35;;
41323;SDS011;27073;51.128;4.220;2023-05-10T13:17:48;14.55;;;13.18;;
41323;SDS011;27073;51.128;4.220;2023-05-10T13:20:13;16.63;;;13.68;;
41323;SDS011;27073;51.128;4.220;2023-05-10T13:22:40;14.70;;;13.15;;
41323;SDS011;27073;51.128;4.220;2023-05-10T13:25:06;16.27;;;13.90;;
41323;SDS011;27073;51.128;4.220;2023-05-10T13:27:32;14.77;;;13.25;;
41323;SDS011;27073;51.128;4.220;2023-05-10T13:29:58;14.00;;;12.70;;
41323;SDS011;27073;51.128;4.220;2023-05-10T13:32:24;17.65;;;14.00;;
41323;SDS011;27073;51.128;4.220;2023-05-10T13:34:51;14.80;;;13.25;;
41323;SDS011;27073;51.128;4.220;2023-05-10T13:37:16;16.05;;;13.50;;
41323;SDS011;27073;51.128;4.220;2023-05-10T13:39:43;15.80;;;13.43;;
41323;SDS011;27073;51.128;4.220;2023-05-10T13:42:09;16.67;;;13.95;;
41323;SDS011;27073;51.128;4.220;2023-05-10T13:44:35;15.48;;;13.80;;
41323;SDS011;27073;51.128;4.220;2023-05-10T13:47:01;19.85;;;15.52;;
41323;SDS011;27073;51.128;4.220;2023-05-10T13:49:26;16.25;;;14.60;;
41323;SDS011;27073;51.128;4.220;2023-05-10T13:51:52;18.08;;;14.43;;
41323;SDS011;27073;51.128;4.220;2023-05-10T13:54:18;17.83;;;15.73;;
41323;SDS011;27073;51.128;4.220;2023-05-10T13:56:45;17.25;;;14.95;;
41323;SDS011;27073;51.128;4.220;2023-05-10T13:59:12;16.65;;;14.73;;
41323;SDS011;27073;51.128;4.220;2023-05-10T14:01:39;18.15;;;15.32;;
41323;SDS011;27073;51.128;4.220;2023-05-10T14:04:05;19.05;;;14.55;;
41323;SDS011;27073;51.128;4.220;2023-05-10T14:06:33;18.35;;;14.27;;
41323;SDS011;27073;51.128;4.220;2023-05-10T14:08:59;18.70;;;14.30;;
41323;SDS011;27073;51.128;4.220;2023-05-10T14:11:25;17.27;;;14.98;;
41323;SDS011;27073;51.128;4.220;2023-05-10T14:13:51;17.02;;;14.52;;
41323;SDS011;27073;51.128;4.220;2023-05-10T14:16:16;17.63;;;14.45;;
41323;SDS011;27073;51.128;4.220;2023-05-10T14:18:42;17.83;;;14.25;;
41323;SDS011;27073;51.128;4.220;2023-05-10T14:21:08;18.05;;;14.27;;
41323;SDS011;27073;51.128;4.220;2023-05-10T14:23:33;16.40;;;11.13;;
41323;SDS011;27073;51.128;4.220;2023-05-10T14:25:59;13.45;;;9.98;;
41323;SDS011;27073;51.128;4.220;2023-05-10T14:28:25;21.73;;;12.27;;
41323;SDS011;27073;51.128;4.220;2023-05-10T14:30:51;20.45;;;12.38;;
41323;SDS011;27073;51.128;4.220;2023-05-10T14:33:17;20.02;;;14.70;;
41323;SDS011;27073;51.128;4.220;2023-05-10T14:35:42;21.10;;;15.98;;
41323;SDS011;27073;51.128;4.220;2023-05-10T14:38:09;23.40;;;18.35;;
41323;SDS011;27073;51.128;4.220;2023-05-10T14:40:35;27.15;;;21.73;;
41323;SDS011;27073;51.128;4.220;2023-05-10T14:43:01;30.65;;;21.65;;
41323;SDS011;27073;51.128;4.220;2023-05-10T14:45:27;22.60;;;14.63;;
41323;SDS011;27073;51.128;4.220;2023-05-10T14:47:53;16.27;;;8.20;;
41323;SDS011;27073;51.128;4.220;2023-05-10T14:50:19;9.85;;;6.10;;
41323;SDS011;27073;51.128;4.220;2023-05-10T14:52:44;11.82;;;7.78;;
41323;SDS011;27073;51.128;4.220;2023-05-10T14:55:10;12.05;;;8.57;;
41323;SDS011;27073;51.128;4.220;2023-05-10T14:57:36;12.48;;;9.43;;
41323;SDS011;27073;51.128;4.220;2023-05-10T15:00:02;15.73;;;9.60;;
41323;SDS011;27073;51.128;4.220;2023-05-10T15:02:28;15.27;;;9.90;;
41323;SDS011;27073;51.128;4.220;2023-05-10T15:04:56;18.20;;;10.77;;
41323;SDS011;27073;51.128;4.220;2023-05-10T15:07:22;15.40;;;10.20;;
41323;SDS011;27073;51.128;4.220;2023-05-10T15:09:49;14.02;;;10.40;;
41323;SDS011;27073;51.128;4.220;2023-05-10T15:12:16;12.35;;;9.35;;
41323;SDS011;27073;51.128;4.220;2023-05-10T15:14:43;9.05;;;7.78;;
41323;SDS011;27073;51.128;4.220;2023-05-10T15:17:08;12.20;;;9.23;;